Allgood, Alabama
Current Conditions -  °F | °C
As of 8:55 AM on Saturday 20 Dec 2014 (Local Time) from KGAD Reporting Station
Overcast Overcast  
Wind Chill: 39°   Ceiling: 5000
Heat Index: 43°   Visibility: 10mi
Dew Point: 36°   Wind: 6mph
Humidity: 76%   Direction: 350°N
Pressure: 30.23"   Gusts: NA
Location:  33.91°N, 86.51°W
Report Text: KGAD 201455Z 35005KT 10SM SCT037 OVC050 06/02 A3023 RMK AO1 52010
Loading
Personal Weather Stations






























Interactive Weather Map New forecast layout! Learn more

10-Day Weather Forecast

Advertisements
Track Severe Weather on mobile